createdAt,value
2019-03-30T00:01:10.083Z,7.46
2019-03-30T00:03:36.068Z,7.58
2019-03-30T00:06:02.080Z,7.60
2019-03-30T00:08:28.329Z,7.57
2019-03-30T00:10:54.441Z,7.50
2019-03-30T00:13:20.423Z,7.46
2019-03-30T00:15:46.434Z,7.47
2019-03-30T00:18:12.885Z,7.55
2019-03-30T00:20:39.077Z,7.55
2019-03-30T00:23:05.202Z,7.57
2019-03-30T00:25:31.207Z,7.57
2019-03-30T00:27:57.233Z,7.54
2019-03-30T00:30:23.407Z,7.53
2019-03-30T00:32:49.658Z,7.49
2019-03-30T00:35:15.749Z,7.58
2019-03-30T00:37:41.748Z,7.46
2019-03-30T00:40:07.712Z,7.40
2019-03-30T00:42:33.736Z,7.38
2019-03-30T00:44:59.712Z,7.32
2019-03-30T00:47:25.731Z,7.34
2019-03-30T00:49:51.704Z,7.32
2019-03-30T00:52:17.716Z,7.18
2019-03-30T00:54:43.688Z,7.16
2019-03-30T00:57:09.721Z,7.17
2019-03-30T00:59:35.676Z,7.01
2019-03-30T01:02:01.703Z,6.79
2019-03-30T01:04:27.708Z,6.60
2019-03-30T01:06:53.751Z,6.53
2019-03-30T01:09:19.728Z,6.27
2019-03-30T01:11:45.710Z,6.23
2019-03-30T01:14:11.903Z,6.40
2019-03-30T01:16:37.896Z,6.50
2019-03-30T01:19:04.491Z,6.21
2019-03-30T01:21:30.510Z,6.15
2019-03-30T01:23:56.518Z,6.02
2019-03-30T01:26:22.512Z,5.98
2019-03-30T01:28:48.539Z,6.01
2019-03-30T01:31:14.521Z,6.12
2019-03-30T01:33:40.547Z,6.17
2019-03-30T01:36:06.644Z,6.06
2019-03-30T01:38:34.526Z,6.08
2019-03-30T01:41:01.061Z,6.24
2019-03-30T01:43:27.063Z,6.13
2019-03-30T01:45:53.049Z,6.11
2019-03-30T01:48:19.060Z,5.98
2019-03-30T01:50:45.079Z,5.89
2019-03-30T01:53:11.055Z,5.96
2019-03-30T01:55:37.062Z,6.02
2019-03-30T01:58:03.047Z,5.95
2019-03-30T02:00:29.093Z,5.82
2019-03-30T02:02:55.068Z,5.82
2019-03-30T02:05:21.050Z,5.87
2019-03-30T02:07:47.143Z,5.89
2019-03-30T02:10:17.125Z,5.89
2019-03-30T02:12:43.294Z,5.84
2019-03-30T02:15:09.368Z,5.91
2019-03-30T02:17:35.347Z,5.79
2019-03-30T02:20:02.272Z,5.82
2019-03-30T02:22:28.251Z,5.72
2019-03-30T02:24:54.210Z,5.71
2019-03-30T02:27:20.433Z,5.72
2019-03-30T02:29:51.324Z,5.67
2019-03-30T02:32:17.341Z,5.77
2019-03-30T02:34:43.361Z,5.77
2019-03-30T02:37:09.378Z,5.87
2019-03-30T02:39:35.467Z,5.77
2019-03-30T02:42:01.491Z,5.69
2019-03-30T02:44:27.530Z,5.60
2019-03-30T02:46:53.739Z,5.43
2019-03-30T02:49:19.879Z,5.45
2019-03-30T02:51:45.958Z,5.38
2019-03-30T02:54:11.973Z,5.38
2019-03-30T02:56:37.949Z,5.23
2019-03-30T02:59:03.973Z,5.20
2019-03-30T03:01:30.064Z,4.84
2019-03-30T03:03:56.080Z,4.75
2019-03-30T03:06:22.133Z,4.69
2019-03-30T03:08:48.156Z,4.65
2019-03-30T03:11:14.271Z,4.58
2019-03-30T03:13:40.347Z,4.72
2019-03-30T03:16:06.406Z,4.38
2019-03-30T03:18:32.392Z,4.26
2019-03-30T03:21:07.419Z,4.24
2019-03-30T03:23:26.292Z,4.12
2019-03-30T03:25:52.309Z,4.29
2019-03-30T03:28:18.288Z,4.12
2019-03-30T03:30:44.544Z,4.08
2019-03-30T03:33:10.525Z,4.16
2019-03-30T03:35:36.522Z,4.23
2019-03-30T03:38:02.517Z,4.15
2019-03-30T03:40:28.500Z,4.10
2019-03-30T03:42:54.506Z,3.95
2019-03-30T03:45:20.521Z,4.10
2019-03-30T03:47:46.826Z,4.01
2019-03-30T03:50:34.790Z,4.00
2019-03-30T03:53:00.865Z,4.02
2019-03-30T03:55:26.893Z,4.02
2019-03-30T03:57:53.175Z,4.09
2019-03-30T04:00:19.346Z,4.05
2019-03-30T04:02:45.659Z,4.12
2019-03-30T04:05:11.656Z,4.16
2019-03-30T04:07:40.651Z,4.17
2019-03-30T04:10:07.421Z,4.24
2019-03-30T04:12:35.407Z,4.21
2019-03-30T04:15:04.093Z,4.19
2019-03-30T04:17:30.085Z,4.29
2019-03-30T04:19:56.106Z,4.36
2019-03-30T04:22:22.131Z,4.30
2019-03-30T04:24:48.159Z,4.17
2019-03-30T04:27:14.153Z,4.33
2019-03-30T04:29:40.383Z,4.34
2019-03-30T04:32:06.412Z,4.26
2019-03-30T04:34:32.559Z,4.32
2019-03-30T04:36:58.568Z,4.24
2019-03-30T04:39:24.919Z,4.23
2019-03-30T04:41:51.027Z,4.22
2019-03-30T04:44:17.005Z,4.22
2019-03-30T04:46:43.018Z,4.05
2019-03-30T04:49:09.048Z,4.07
2019-03-30T04:51:35.087Z,4.10
2019-03-30T04:54:01.112Z,4.06
2019-03-30T04:56:27.094Z,4.05
2019-03-30T04:58:53.065Z,3.89
2019-03-30T05:01:19.105Z,3.94
2019-03-30T05:03:45.224Z,3.84
2019-03-30T05:06:11.290Z,3.91
2019-03-30T05:08:37.333Z,3.80
2019-03-30T05:11:03.309Z,4.03
2019-03-30T05:13:29.345Z,3.90
2019-03-30T05:15:55.330Z,3.83
2019-03-30T05:18:21.292Z,3.90
2019-03-30T05:20:47.749Z,4.03
2019-03-30T05:23:13.756Z,4.02
2019-03-30T05:25:39.772Z,3.92
2019-03-30T05:28:05.808Z,4.01
2019-03-30T05:30:31.858Z,3.99
2019-03-30T05:33:05.457Z,4.05
2019-03-30T05:35:25.756Z,4.18
2019-03-30T05:37:51.860Z,4.18
2019-03-30T05:40:17.879Z,4.07
2019-03-30T05:42:43.940Z,4.04
2019-03-30T05:45:10.265Z,3.98
2019-03-30T05:47:36.287Z,3.91
2019-03-30T05:50:04.620Z,3.99
2019-03-30T05:52:30.592Z,3.98
2019-03-30T05:54:56.580Z,3.93
2019-03-30T05:57:22.591Z,3.92
2019-03-30T05:59:48.801Z,3.92
2019-03-30T06:02:14.815Z,4.05
2019-03-30T06:04:40.822Z,4.08
2019-03-30T06:07:06.828Z,4.10
2019-03-30T06:09:32.808Z,4.05
2019-03-30T06:11:58.858Z,4.28
2019-03-30T06:14:24.836Z,4.29
2019-03-30T06:16:50.831Z,4.34
2019-03-30T06:19:16.852Z,4.32
2019-03-30T06:21:42.881Z,4.48
2019-03-30T06:24:08.892Z,4.58
2019-03-30T06:26:34.877Z,4.69
2019-03-30T06:29:00.932Z,4.74
2019-03-30T06:31:27.104Z,4.90
2019-03-30T06:33:53.118Z,4.98
2019-03-30T06:36:19.189Z,5.03
2019-03-30T06:38:45.233Z,5.06
2019-03-30T06:41:11.240Z,5.16
2019-03-30T06:43:37.278Z,5.47
2019-03-30T06:46:03.318Z,5.61
2019-03-30T06:48:29.494Z,5.90
2019-03-30T06:50:55.565Z,6.07
2019-03-30T06:53:21.743Z,6.39
2019-03-30T06:55:47.912Z,6.57
2019-03-30T06:58:14.129Z,6.84
2019-03-30T07:00:40.582Z,6.85
2019-03-30T07:03:06.705Z,7.05
2019-03-30T07:05:37.696Z,7.32
2019-03-30T07:08:05.742Z,7.71
2019-03-30T07:10:32.102Z,7.98
2019-03-30T07:13:01.628Z,8.36
2019-03-30T07:15:29.742Z,8.70
2019-03-30T07:17:59.633Z,8.95
2019-03-30T07:20:28.541Z,9.29
2019-03-30T07:22:55.091Z,9.68
2019-03-30T07:25:21.252Z,9.80
2019-03-30T07:27:47.223Z,10.01
2019-03-30T07:30:13.504Z,10.25
2019-03-30T07:32:39.676Z,10.46
2019-03-30T07:35:06.026Z,10.73
2019-03-30T07:37:32.102Z,11.15
2019-03-30T07:39:58.230Z,11.40
2019-03-30T07:42:24.446Z,11.54
2019-03-30T07:44:50.594Z,11.58
2019-03-30T07:47:16.579Z,11.74
2019-03-30T07:49:42.694Z,12.06
2019-03-30T07:52:08.874Z,12.36
2019-03-30T07:54:35.003Z,12.50
2019-03-30T07:57:06.283Z,13.11
2019-03-30T07:59:29.104Z,13.15
2019-03-30T08:01:55.180Z,13.33
2019-03-30T08:04:21.180Z,13.53
2019-03-30T08:06:47.221Z,13.49
2019-03-30T08:09:13.280Z,13.70
2019-03-30T08:11:39.340Z,13.74
2019-03-30T08:14:05.522Z,13.96
2019-03-30T08:16:31.566Z,14.48
2019-03-30T08:18:57.574Z,14.51
2019-03-30T08:21:23.580Z,14.70
2019-03-30T08:23:49.626Z,14.92
2019-03-30T08:26:17.590Z,14.93
2019-03-30T08:28:43.716Z,14.91
2019-03-30T08:31:09.703Z,15.27
2019-03-30T08:33:35.740Z,15.49
2019-03-30T08:36:01.968Z,15.83
2019-03-30T08:38:28.109Z,15.75
2019-03-30T08:40:54.133Z,15.71
2019-03-30T08:43:20.192Z,16.17
2019-03-30T08:45:48.878Z,16.73
2019-03-30T08:48:14.355Z,17.08
2019-03-30T08:50:40.379Z,17.21
2019-03-30T08:53:06.440Z,17.53
2019-03-30T08:55:32.560Z,17.53
2019-03-30T08:57:58.651Z,16.77
2019-03-30T09:00:37.008Z,18.10
2019-03-30T09:03:03.278Z,18.61
2019-03-30T09:05:29.277Z,18.69
2019-03-30T09:07:55.363Z,18.96
2019-03-30T09:10:21.826Z,18.78
2019-03-30T09:12:47.947Z,19.31
2019-03-30T09:15:13.926Z,19.18
2019-03-30T09:17:40.069Z,19.53
2019-03-30T09:20:06.707Z,19.57
2019-03-30T09:22:33.147Z,19.62
2019-03-30T09:24:59.288Z,19.61
2019-03-30T09:27:25.441Z,19.66
2019-03-30T09:29:55.145Z,19.69
2019-03-30T09:32:22.896Z,19.23
2019-03-30T09:34:49.179Z,20.13
2019-03-30T09:37:15.281Z,20.27
2019-03-30T09:39:41.294Z,20.02
2019-03-30T09:42:07.304Z,20.10
2019-03-30T09:44:33.348Z,20.66
2019-03-30T09:46:59.470Z,20.01
2019-03-30T09:49:25.452Z,20.47
2019-03-30T09:51:51.532Z,20.13
2019-03-30T09:54:23.634Z,21.09
2019-03-30T09:56:45.537Z,21.24
2019-03-30T09:59:11.562Z,21.34
2019-03-30T10:01:38.433Z,21.37
2019-03-30T10:04:04.471Z,21.85
2019-03-30T10:06:34.356Z,21.35
2019-03-30T10:08:58.363Z,20.93
2019-03-30T10:11:24.381Z,21.68
2019-03-30T10:13:50.380Z,22.01
2019-03-30T10:16:16.400Z,22.49
2019-03-30T10:18:42.516Z,21.38
2019-03-30T10:21:08.500Z,21.46
2019-03-30T10:23:34.476Z,22.77
2019-03-30T10:26:00.721Z,22.23
2019-03-30T10:28:26.711Z,22.25
2019-03-30T10:30:52.802Z,22.37
2019-03-30T10:33:18.842Z,22.68
2019-03-30T10:35:44.827Z,21.09
2019-03-30T10:38:10.799Z,21.22
2019-03-30T10:40:36.818Z,21.45
2019-03-30T10:43:02.842Z,21.76
2019-03-30T10:45:28.896Z,22.70
2019-03-30T10:47:54.923Z,23.03
2019-03-30T10:50:20.915Z,22.46
2019-03-30T10:52:46.987Z,21.93
2019-03-30T10:55:12.989Z,22.24
2019-03-30T10:57:38.999Z,22.83
2019-03-30T11:00:05.754Z,23.20
2019-03-30T11:02:31.780Z,22.18
2019-03-30T11:04:57.764Z,23.18
2019-03-30T11:07:23.867Z,23.23
2019-03-30T11:09:49.884Z,23.62
2019-03-30T11:12:17.935Z,23.76
2019-03-30T11:14:43.990Z,22.67
2019-03-30T11:17:10.085Z,22.17
2019-03-30T11:19:36.174Z,22.53
2019-03-30T11:22:03.621Z,22.55
2019-03-30T11:24:29.720Z,22.38
2019-03-30T11:26:57.603Z,22.64
2019-03-30T11:29:23.726Z,22.48
2019-03-30T11:31:49.836Z,21.29
2019-03-30T11:34:16.160Z,20.77
2019-03-30T11:36:42.348Z,20.68
2019-03-30T11:39:08.366Z,20.88
2019-03-30T11:41:34.442Z,20.01
2019-03-30T11:44:00.750Z,20.25
2019-03-30T11:46:26.817Z,20.43
2019-03-30T11:48:52.904Z,20.92
2019-03-30T11:51:18.905Z,21.22
2019-03-30T11:53:44.949Z,22.22
2019-03-30T11:56:10.956Z,21.53
2019-03-30T11:58:37.073Z,21.34
2019-03-30T12:01:03.084Z,22.34
2019-03-30T12:03:29.100Z,22.34
2019-03-30T12:05:55.101Z,20.72
2019-03-30T12:08:21.136Z,20.42
2019-03-30T12:10:47.207Z,20.56
2019-03-30T12:13:13.537Z,20.99
2019-03-30T12:15:39.523Z,20.14
2019-03-30T12:18:05.617Z,19.08
2019-03-30T12:20:32.169Z,18.66
2019-03-30T12:22:58.152Z,18.58
2019-03-30T12:25:34.965Z,18.63
2019-03-30T12:27:52.084Z,18.92
2019-03-30T12:30:18.128Z,18.91
2019-03-30T12:32:44.158Z,18.32
2019-03-30T12:35:10.300Z,18.33
2019-03-30T12:37:36.419Z,18.89
2019-03-30T12:40:04.641Z,19.29
2019-03-30T12:42:30.648Z,19.01
2019-03-30T12:44:56.693Z,18.82
2019-03-30T12:47:22.692Z,18.69
2019-03-30T12:49:48.681Z,18.69
2019-03-30T12:52:14.732Z,18.79
2019-03-30T12:54:40.729Z,18.81
2019-03-30T12:57:06.715Z,19.62
2019-03-30T12:59:32.747Z,19.75
2019-03-30T13:01:58.729Z,20.03
2019-03-30T13:04:24.747Z,19.75
2019-03-30T13:06:50.771Z,20.11
2019-03-30T13:09:16.765Z,19.69
2019-03-30T13:11:42.776Z,20.06
2019-03-30T13:14:08.914Z,21.08
2019-03-30T13:16:34.997Z,20.16
2019-03-30T13:19:01.065Z,19.84
2019-03-30T13:21:27.075Z,20.32
2019-03-30T13:23:53.409Z,20.87
2019-03-30T13:26:19.457Z,20.94
2019-03-30T13:28:45.475Z,19.31
2019-03-30T13:31:11.522Z,19.52
2019-03-30T13:33:37.539Z,20.10
2019-03-30T13:36:03.634Z,20.14
2019-03-30T13:38:29.644Z,20.21
2019-03-30T13:40:55.683Z,20.39
2019-03-30T13:43:21.747Z,20.32
2019-03-30T13:45:47.975Z,20.40
2019-03-30T13:48:13.968Z,21.07
2019-03-30T13:50:39.961Z,20.79
2019-03-30T13:53:05.988Z,21.33
2019-03-30T13:55:31.976Z,20.72
2019-03-30T13:57:57.961Z,20.60
2019-03-30T14:00:24.060Z,20.85
2019-03-30T14:02:50.050Z,21.21
2019-03-30T14:05:16.095Z,21.05
2019-03-30T14:07:42.113Z,20.65
2019-03-30T14:10:08.845Z,20.63
2019-03-30T14:12:34.819Z,20.93
2019-03-30T14:15:00.805Z,20.89
2019-03-30T14:17:26.827Z,20.72
2019-03-30T14:19:52.811Z,20.13
2019-03-30T14:22:18.848Z,20.17
2019-03-30T14:24:45.198Z,19.97
2019-03-30T14:27:11.480Z,19.40
2019-03-30T14:29:37.515Z,19.16
2019-03-30T14:32:03.572Z,18.69
2019-03-30T14:34:29.689Z,19.06
2019-03-30T14:36:55.676Z,19.01
2019-03-30T14:39:21.763Z,18.88
2019-03-30T14:41:48.004Z,18.88
2019-03-30T14:44:15.248Z,19.09
2019-03-30T14:46:41.446Z,19.59
2019-03-30T14:49:07.536Z,19.70
2019-03-30T14:51:33.623Z,19.89
2019-03-30T14:53:59.703Z,20.10
2019-03-30T14:56:25.745Z,20.15
2019-03-30T14:58:51.750Z,20.25
2019-03-30T15:01:18.145Z,19.98
2019-03-30T15:03:44.217Z,20.20
2019-03-30T15:06:10.212Z,19.97
2019-03-30T15:08:36.492Z,19.50
2019-03-30T15:11:02.572Z,19.26
2019-03-30T15:13:28.634Z,18.71
2019-03-30T15:15:54.652Z,18.53
2019-03-30T15:18:20.720Z,18.33
2019-03-30T15:20:46.933Z,18.18
2019-03-30T15:23:12.991Z,18.26
2019-03-30T15:25:39.056Z,18.27
2019-03-30T15:28:05.092Z,18.21
2019-03-30T15:30:31.144Z,18.18
2019-03-30T15:32:57.164Z,18.30
2019-03-30T15:35:23.219Z,18.23
2019-03-30T15:37:49.267Z,17.97
2019-03-30T15:40:15.357Z,18.04
2019-03-30T15:42:41.361Z,17.93
2019-03-30T15:45:08.500Z,17.90
2019-03-30T15:47:34.480Z,17.88
2019-03-30T15:50:00.708Z,17.92
2019-03-30T15:52:26.739Z,17.96
2019-03-30T15:54:52.794Z,17.83
2019-03-30T15:57:18.922Z,17.76
2019-03-30T15:59:45.375Z,17.73
2019-03-30T16:02:11.504Z,17.84
2019-03-30T16:04:37.489Z,17.77
2019-03-30T16:07:06.736Z,17.65
2019-03-30T16:09:31.565Z,17.65
2019-03-30T16:11:58.484Z,17.56
2019-03-30T16:14:24.473Z,17.53
2019-03-30T16:16:50.759Z,17.53
2019-03-30T16:19:16.798Z,17.51
2019-03-30T16:21:42.881Z,17.44
2019-03-30T16:24:08.889Z,17.36
2019-03-30T16:26:42.018Z,17.34
2019-03-30T16:29:02.898Z,17.35
2019-03-30T16:31:29.171Z,17.31
2019-03-30T16:33:55.381Z,17.26
2019-03-30T16:36:21.491Z,17.20
2019-03-30T16:38:47.782Z,17.23
2019-03-30T16:41:14.072Z,17.15
2019-03-30T16:43:40.112Z,17.09
2019-03-30T16:46:06.150Z,17.04
2019-03-30T16:48:32.184Z,16.96
2019-03-30T16:50:58.171Z,17.08
2019-03-30T16:53:24.360Z,17.00
2019-03-30T16:55:50.482Z,16.95
2019-03-30T16:58:16.529Z,16.86
2019-03-30T17:00:55.597Z,16.80
2019-03-30T17:03:10.484Z,16.82
2019-03-30T17:05:36.571Z,16.73
2019-03-30T17:08:02.549Z,16.77
2019-03-30T17:10:28.558Z,16.75
2019-03-30T17:12:54.568Z,16.64
2019-03-30T17:15:22.446Z,16.49
2019-03-30T17:17:48.560Z,16.47
2019-03-30T17:20:14.594Z,16.54
2019-03-30T17:22:40.598Z,16.29
2019-03-30T17:25:06.876Z,16.25
2019-03-30T17:27:32.897Z,16.34
2019-03-30T17:29:58.890Z,16.13
2019-03-30T17:32:24.933Z,16.12
2019-03-30T17:34:50.939Z,16.15
2019-03-30T17:37:16.925Z,16.08
2019-03-30T17:39:43.139Z,16.08
2019-03-30T17:42:10.949Z,16.08
2019-03-30T17:44:37.047Z,15.96
2019-03-30T17:47:03.075Z,15.95
2019-03-30T17:49:29.318Z,15.88
2019-03-30T17:51:55.325Z,15.87
2019-03-30T17:54:21.308Z,15.87
2019-03-30T17:56:47.367Z,15.72
2019-03-30T17:59:13.347Z,15.81
2019-03-30T18:01:39.329Z,15.74
2019-03-30T18:04:05.360Z,15.55
2019-03-30T18:06:31.371Z,15.66
2019-03-30T18:08:57.386Z,15.63
2019-03-30T18:11:23.420Z,15.57
2019-03-30T18:13:49.457Z,15.59
2019-03-30T18:16:15.669Z,15.47
2019-03-30T18:18:41.712Z,15.52
2019-03-30T18:21:07.848Z,15.52
2019-03-30T18:23:34.490Z,15.47
2019-03-30T18:26:00.683Z,15.46
2019-03-30T18:28:27.675Z,15.34
2019-03-30T18:30:56.118Z,15.28
2019-03-30T18:33:22.391Z,15.15
2019-03-30T18:35:48.612Z,15.28
2019-03-30T18:38:15.565Z,15.25
2019-03-30T18:40:41.916Z,15.15
2019-03-30T18:43:08.410Z,15.10
2019-03-30T18:45:34.677Z,14.95
2019-03-30T18:48:14.550Z,14.93
2019-03-30T18:50:41.412Z,14.73
2019-03-30T18:53:07.912Z,14.73
2019-03-30T18:55:34.420Z,14.80
2019-03-30T18:58:00.945Z,14.72
2019-03-30T19:00:27.140Z,14.67
2019-03-30T19:02:53.162Z,14.62
2019-03-30T19:05:19.236Z,14.48
2019-03-30T19:07:45.253Z,14.44
2019-03-30T19:10:11.459Z,14.35
2019-03-30T19:12:37.485Z,14.32
2019-03-30T19:15:05.744Z,14.21
2019-03-30T19:17:33.329Z,14.20
2019-03-30T19:20:00.905Z,14.12
2019-03-30T19:22:26.928Z,14.13
2019-03-30T19:24:53.242Z,14.11
2019-03-30T19:27:19.231Z,14.00
2019-03-30T19:29:45.383Z,14.04
2019-03-30T19:35:35.190Z,14.15
2019-03-30T19:38:01.464Z,14.12
2019-03-30T19:40:27.472Z,14.12
2019-03-30T19:42:53.888Z,14.04
2019-03-30T19:45:19.929Z,14.10
2019-03-30T19:47:45.919Z,14.05
2019-03-30T19:50:18.620Z,14.06
2019-03-30T19:52:44.642Z,14.05
2019-03-30T19:55:10.857Z,14.13
2019-03-30T19:57:36.842Z,13.97
2019-03-30T20:00:06.833Z,14.01
2019-03-30T20:02:32.937Z,13.93
2019-03-30T20:04:58.916Z,13.79
2019-03-30T20:07:26.485Z,13.66
2019-03-30T20:09:53.234Z,13.67
2019-03-30T20:12:19.574Z,13.63
2019-03-30T20:14:46.175Z,13.70
2019-03-30T20:17:12.767Z,13.60
2019-03-30T20:19:38.927Z,13.60
2019-03-30T20:22:05.032Z,13.40
2019-03-30T20:24:31.180Z,13.39
2019-03-30T20:26:57.205Z,13.33
2019-03-30T20:29:25.557Z,13.26
2019-03-30T20:31:51.229Z,13.22
2019-03-30T20:34:17.551Z,13.19
2019-03-30T20:36:43.602Z,13.18
2019-03-30T20:39:10.079Z,13.15
2019-03-30T20:41:36.185Z,13.06
2019-03-30T20:44:02.160Z,12.99
2019-03-30T20:46:28.149Z,12.99
2019-03-30T20:48:54.268Z,12.96
2019-03-30T20:51:20.358Z,12.86
2019-03-30T20:53:46.593Z,12.73
2019-03-30T20:56:12.673Z,12.64
2019-03-30T20:58:38.689Z,12.58
2019-03-30T21:01:04.724Z,12.40
2019-03-30T21:03:30.786Z,12.40
2019-03-30T21:05:57.038Z,12.42
2019-03-30T21:08:23.104Z,12.32
2019-03-30T21:10:49.085Z,12.17
2019-03-30T21:13:15.111Z,12.17
2019-03-30T21:15:41.160Z,12.27
2019-03-30T21:18:07.287Z,12.34
2019-03-30T21:20:33.261Z,12.12
2019-03-30T21:22:59.272Z,12.08
2019-03-30T21:25:25.360Z,11.92
2019-03-30T21:27:51.481Z,11.86
2019-03-30T21:30:17.790Z,11.75
2019-03-30T21:32:43.801Z,11.69
2019-03-30T21:35:10.041Z,11.64
2019-03-30T21:37:36.321Z,11.53
2019-03-30T21:40:04.539Z,11.34
2019-03-30T21:42:30.596Z,11.75
2019-03-30T21:44:56.604Z,11.86
2019-03-30T21:47:22.624Z,11.59
2019-03-30T21:49:48.636Z,11.29
2019-03-30T21:52:14.729Z,11.24
2019-03-30T21:54:40.724Z,11.28
2019-03-30T21:57:06.692Z,11.16
2019-03-30T21:59:32.803Z,11.07
2019-03-30T22:01:58.846Z,10.88
2019-03-30T22:04:24.832Z,10.86
2019-03-30T22:06:50.820Z,10.85
2019-03-30T22:09:16.837Z,10.87
2019-03-30T22:11:42.815Z,10.71
2019-03-30T22:14:08.837Z,10.60
2019-03-30T22:16:34.885Z,10.63
2019-03-30T22:19:00.960Z,10.60
2019-03-30T22:21:26.985Z,10.57
2019-03-30T22:23:53.379Z,10.52
2019-03-30T22:26:19.913Z,10.46
2019-03-30T22:28:45.993Z,10.48
2019-03-30T22:31:12.056Z,10.34
2019-03-30T22:33:38.038Z,10.34
2019-03-30T22:36:04.266Z,10.28
2019-03-30T22:38:30.316Z,10.33
2019-03-30T22:40:56.316Z,10.19
2019-03-30T22:43:22.323Z,10.13
2019-03-30T22:45:48.312Z,10.12
2019-03-30T22:48:14.328Z,10.09
2019-03-30T22:50:40.383Z,10.14
2019-03-30T22:53:06.416Z,10.16
2019-03-30T22:55:32.450Z,10.14
2019-03-30T22:57:58.480Z,10.14
2019-03-30T23:00:39.029Z,9.95
2019-03-30T23:03:04.944Z,9.94
2019-03-30T23:05:30.920Z,9.89
2019-03-30T23:07:56.899Z,9.92
2019-03-30T23:10:22.928Z,9.90
2019-03-30T23:12:48.929Z,9.93
2019-03-30T23:15:14.920Z,9.90
2019-03-30T23:17:40.935Z,9.79
2019-03-30T23:20:07.100Z,9.74
2019-03-30T23:22:33.063Z,9.69
2019-03-30T23:24:59.110Z,9.65
2019-03-30T23:27:25.159Z,9.55
2019-03-30T23:29:51.151Z,9.48
2019-03-30T23:32:17.187Z,9.42
2019-03-30T23:34:43.163Z,9.41
2019-03-30T23:37:09.180Z,9.37
2019-03-30T23:39:35.219Z,9.37
2019-03-30T23:42:01.228Z,9.35
2019-03-30T23:44:27.262Z,9.25
2019-03-30T23:46:54.284Z,9.09
2019-03-30T23:49:20.313Z,9.08
2019-03-30T23:51:46.397Z,9.04
2019-03-30T23:54:14.284Z,9.00
2019-03-30T23:56:40.315Z,8.97
2019-03-30T23:59:06.367Z,8.89
